createdAt,value
2023-01-19T00:01:30.959Z,100.00
2023-01-19T00:04:04.242Z,100.00
2023-01-19T00:06:37.218Z,100.00
2023-01-19T00:09:10.334Z,100.00
2023-01-19T00:11:43.371Z,100.00
2023-01-19T00:14:17.715Z,100.00
2023-01-19T00:16:50.741Z,100.00
2023-01-19T00:19:23.808Z,100.00
2023-01-19T00:21:57.173Z,100.00
2023-01-19T00:24:30.143Z,100.00
2023-01-19T00:27:04.089Z,100.00
2023-01-19T00:29:38.481Z,100.00
2023-01-19T00:32:11.458Z,100.00
2023-01-19T00:34:49.437Z,100.00
2023-01-19T00:37:22.506Z,100.00
2023-01-19T00:39:55.519Z,100.00
2023-01-19T00:42:45.274Z,100.00
2023-01-19T00:45:22.102Z,100.00
2023-01-19T00:47:57.199Z,100.00
2023-01-19T00:50:33.665Z,100.00
2023-01-19T00:53:06.752Z,100.00
2023-01-19T00:55:39.773Z,100.00
2023-01-19T00:58:12.869Z,100.00
2023-01-19T01:00:47.280Z,100.00
2023-01-19T01:03:20.373Z,100.00
2023-01-19T01:05:53.423Z,100.00
2023-01-19T01:08:26.519Z,100.00
2023-01-19T01:10:59.580Z,100.00
2023-01-19T01:13:33.046Z,100.00
2023-01-19T01:16:09.792Z,100.00
2023-01-19T01:18:43.048Z,100.00
2023-01-19T01:21:16.057Z,100.00
2023-01-19T01:23:49.029Z,100.00
2023-01-19T01:26:22.282Z,100.00
2023-01-19T01:28:55.295Z,100.00
2023-01-19T01:31:29.878Z,100.00
2023-01-19T01:34:02.965Z,100.00
2023-01-19T01:36:36.145Z,100.00
2023-01-19T01:39:09.168Z,100.00
2023-01-19T01:41:42.134Z,100.00
2023-01-19T01:44:51.562Z,100.00
2023-01-19T01:47:32.850Z,100.00
2023-01-19T01:50:12.716Z,100.00
2023-01-19T01:53:06.397Z,100.00
2023-01-19T01:55:46.565Z,100.00
2023-01-19T01:58:19.563Z,100.00
2023-01-19T02:01:10.430Z,100.00
2023-01-19T02:03:45.376Z,100.00
2023-01-19T02:06:18.844Z,100.00
2023-01-19T02:09:14.589Z,100.00
2023-01-19T02:12:05.925Z,100.00
2023-01-19T02:14:39.138Z,100.00
2023-01-19T02:17:12.194Z,100.00
2023-01-19T02:19:46.716Z,100.00
2023-01-19T02:22:26.246Z,100.00
2023-01-19T02:25:00.895Z,100.00
2023-01-19T02:27:34.293Z,100.00
2023-01-19T02:30:10.016Z,100.00
2023-01-19T02:32:43.378Z,100.00
2023-01-19T02:35:17.125Z,100.00
2023-01-19T02:37:50.317Z,100.00
2023-01-19T02:40:25.810Z,100.00
2023-01-19T02:43:00.935Z,100.00
2023-01-19T02:45:34.737Z,100.00
2023-01-19T02:48:08.341Z,100.00
2023-01-19T02:50:46.289Z,100.00
2023-01-19T02:54:12.561Z,100.00
2023-01-19T02:57:13.855Z,100.00
2023-01-19T03:00:08.032Z,100.00
2023-01-19T03:02:55.886Z,100.00
2023-01-19T03:05:41.728Z,100.00
2023-01-19T03:08:23.935Z,100.00
2023-01-19T03:11:03.423Z,100.00
2023-01-19T03:13:46.549Z,100.00
2023-01-19T03:16:23.193Z,100.00
2023-01-19T03:18:59.822Z,100.00
2023-01-19T03:21:37.065Z,100.00
2023-01-19T03:24:12.532Z,100.00
2023-01-19T03:26:49.958Z,100.00
2023-01-19T03:29:29.405Z,100.00
2023-01-19T03:32:09.049Z,100.00
2023-01-19T03:34:43.989Z,100.00
2023-01-19T03:37:17.647Z,100.00
2023-01-19T03:39:51.351Z,100.00
2023-01-19T03:42:26.485Z,100.00
2023-01-19T03:45:02.918Z,100.00
2023-01-19T03:47:37.571Z,100.00
2023-01-19T03:50:19.350Z,100.00
2023-01-19T03:53:03.143Z,100.00
2023-01-19T03:55:38.627Z,100.00
2023-01-19T03:58:11.878Z,100.00
2023-01-19T04:00:46.294Z,100.00
2023-01-19T04:03:19.884Z,100.00
2023-01-19T04:05:52.872Z,100.00
2023-01-19T04:08:25.858Z,100.00
2023-01-19T04:10:59.233Z,100.00
2023-01-19T04:13:32.250Z,100.00
2023-01-19T04:16:07.884Z,100.00
2023-01-19T04:18:42.303Z,100.00
2023-01-19T04:21:15.494Z,100.00
2023-01-19T04:23:49.886Z,100.00
2023-01-19T04:26:22.901Z,100.00
2023-01-19T04:28:55.883Z,100.00
2023-01-19T04:31:31.288Z,100.00
2023-01-19T04:34:04.537Z,100.00
2023-01-19T04:36:37.559Z,100.00
2023-01-19T04:39:11.756Z,100.00
2023-01-19T04:41:44.763Z,100.00
2023-01-19T04:44:17.755Z,100.00
2023-01-19T04:46:52.207Z,100.00
2023-01-19T04:49:25.261Z,100.00
2023-01-19T04:51:58.318Z,100.00
2023-01-19T04:54:31.585Z,100.00
2023-01-19T04:57:04.737Z,100.00
2023-01-19T04:59:37.724Z,100.00
2023-01-19T05:02:12.106Z,100.00
2023-01-19T05:04:45.148Z,100.00
2023-01-19T05:07:18.458Z,100.00
2023-01-19T05:09:51.513Z,100.00
2023-01-19T05:12:24.545Z,100.00
2023-01-19T05:14:57.541Z,100.00
2023-01-19T05:17:31.915Z,100.00
2023-01-19T05:20:05.739Z,100.00
2023-01-19T05:22:39.462Z,100.00
2023-01-19T05:25:12.465Z,100.00
2023-01-19T05:27:45.847Z,100.00
2023-01-19T05:30:19.285Z,100.00
2023-01-19T05:32:53.649Z,100.00
2023-01-19T05:35:35.671Z,100.00
2023-01-19T05:38:09.208Z,100.00
2023-01-19T05:40:42.227Z,100.00
2023-01-19T05:43:15.961Z,100.00
2023-01-19T05:45:48.984Z,100.00
2023-01-19T05:48:23.290Z,100.00
2023-01-19T05:50:59.876Z,100.00
2023-01-19T05:53:33.389Z,100.00
2023-01-19T05:56:09.269Z,100.00
2023-01-19T05:58:42.299Z,100.00
2023-01-19T06:01:15.438Z,100.00
2023-01-19T06:03:50.329Z,100.00
2023-01-19T06:06:23.598Z,100.00
2023-01-19T06:08:56.636Z,100.00
2023-01-19T06:11:29.677Z,100.00
2023-01-19T06:14:02.706Z,100.00
2023-01-19T06:16:35.768Z,100.00
2023-01-19T06:19:10.695Z,100.00
2023-01-19T06:21:49.523Z,100.00
2023-01-19T06:24:24.031Z,100.00
2023-01-19T06:26:57.061Z,100.00
2023-01-19T06:29:30.059Z,100.00
2023-01-19T06:32:03.356Z,100.00
2023-01-19T06:34:40.160Z,100.00
2023-01-19T06:37:13.378Z,100.00
2023-01-19T06:39:46.372Z,100.00
2023-01-19T06:42:19.387Z,100.00
2023-01-19T06:44:52.409Z,100.00
2023-01-19T06:47:25.424Z,100.00
2023-01-19T06:49:59.794Z,100.00
2023-01-19T06:52:32.774Z,100.00
2023-01-19T06:55:10.701Z,100.00
2023-01-19T06:57:44.366Z,100.00
2023-01-19T07:00:18.909Z,100.00
2023-01-19T07:02:52.040Z,100.00
2023-01-19T07:05:26.557Z,100.00
2023-01-19T07:07:59.545Z,100.00
2023-01-19T07:11:25.038Z,100.00
2023-01-19T07:13:25.627Z,100.00
2023-01-19T07:15:58.759Z,100.00
2023-01-19T07:18:31.974Z,100.00
2023-01-19T07:21:07.703Z,100.00
2023-01-19T07:23:40.730Z,100.00
2023-01-19T07:26:15.286Z,100.00
2023-01-19T07:28:48.708Z,100.00
2023-01-19T07:31:21.987Z,100.00
2023-01-19T07:33:55.258Z,100.00
2023-01-19T07:36:29.590Z,100.00
2023-01-19T07:39:02.680Z,100.00
2023-01-19T07:41:35.669Z,100.00
2023-01-19T07:44:08.823Z,100.00
2023-01-19T07:46:43.329Z,100.00
2023-01-19T07:49:16.319Z,100.00
2023-01-19T07:51:50.686Z,100.00
2023-01-19T07:54:24.078Z,100.00
2023-01-19T07:56:57.182Z,100.00
2023-01-19T07:59:32.239Z,100.00
2023-01-19T08:02:05.673Z,100.00
2023-01-19T08:04:38.797Z,100.00
2023-01-19T08:07:13.705Z,100.00
2023-01-19T08:09:46.685Z,100.00
2023-01-19T08:12:19.707Z,100.00
2023-01-19T08:14:52.740Z,100.00
2023-01-19T08:17:25.754Z,100.00
2023-01-19T08:19:58.948Z,100.00
2023-01-19T08:22:33.287Z,100.00
2023-01-19T08:25:07.352Z,100.00
2023-01-19T08:27:40.318Z,100.00
2023-01-19T08:30:14.222Z,100.00
2023-01-19T08:32:47.209Z,100.00
2023-01-19T08:35:20.200Z,100.00
2023-01-19T08:37:54.578Z,100.00
2023-01-19T08:40:27.929Z,100.00
2023-01-19T08:43:03.778Z,99.96
2023-01-19T08:45:41.402Z,98.36
2023-01-19T08:48:14.914Z,97.26
2023-01-19T08:50:48.941Z,96.54
2023-01-19T08:53:24.481Z,96.33
2023-01-19T08:56:00.028Z,98.42
2023-01-19T08:58:33.067Z,98.76
2023-01-19T09:01:06.861Z,97.25
2023-01-19T09:03:40.189Z,97.79
2023-01-19T09:06:17.018Z,96.46
2023-01-19T09:08:51.359Z,95.51
2023-01-19T09:11:24.397Z,94.62
2023-01-19T09:13:57.402Z,93.79
2023-01-19T09:16:30.483Z,92.08
2023-01-19T09:19:03.566Z,93.61
2023-01-19T09:21:36.856Z,90.60
2023-01-19T09:24:11.806Z,89.21
2023-01-19T09:26:44.893Z,88.46
2023-01-19T09:29:18.160Z,88.27
2023-01-19T09:31:51.274Z,88.61
2023-01-19T09:34:25.543Z,87.88
2023-01-19T09:36:58.652Z,88.32
2023-01-19T09:39:33.077Z,89.13
2023-01-19T09:42:15.091Z,89.00
2023-01-19T09:44:51.111Z,89.17
2023-01-19T09:47:29.115Z,89.36
2023-01-19T09:50:07.012Z,88.04
2023-01-19T09:52:45.206Z,86.05
2023-01-19T09:55:24.493Z,86.36
2023-01-19T09:57:58.037Z,85.58
2023-01-19T10:00:32.644Z,84.37
2023-01-19T10:03:16.219Z,83.77
2023-01-19T10:05:54.019Z,85.16
2023-01-19T10:08:37.168Z,82.56
2023-01-19T10:11:26.313Z,82.09
2023-01-19T10:14:00.583Z,80.90
2023-01-19T10:16:45.744Z,80.85
2023-01-19T10:19:26.669Z,82.15
2023-01-19T10:22:06.011Z,83.17
2023-01-19T10:24:42.774Z,80.31
2023-01-19T10:27:20.819Z,81.32
2023-01-19T10:29:53.966Z,81.46
2023-01-19T10:32:30.391Z,81.62
2023-01-19T10:35:21.177Z,78.63
2023-01-19T10:37:57.908Z,80.37
2023-01-19T10:40:37.606Z,79.58
2023-01-19T10:43:48.152Z,78.31
2023-01-19T10:46:25.773Z,78.16
2023-01-19T10:48:59.079Z,79.25
2023-01-19T10:51:32.251Z,80.40
2023-01-19T10:54:06.284Z,78.18
2023-01-19T10:56:40.469Z,78.91
2023-01-19T10:59:35.564Z,79.92
2023-01-19T11:02:21.326Z,81.03
2023-01-19T11:04:57.095Z,81.75
2023-01-19T11:07:32.535Z,79.21
2023-01-19T11:10:27.105Z,79.50
2023-01-19T11:13:03.900Z,79.92
2023-01-19T11:15:46.147Z,82.48
2023-01-19T11:18:28.553Z,80.96
2023-01-19T11:21:03.801Z,81.45
2023-01-19T11:23:42.862Z,82.10
2023-01-19T11:26:25.384Z,79.81
2023-01-19T11:29:00.281Z,80.32
2023-01-19T11:31:36.923Z,78.37
2023-01-19T11:34:26.916Z,76.43
2023-01-19T11:37:03.033Z,77.43
2023-01-19T11:39:49.488Z,78.27
2023-01-19T11:42:23.433Z,78.06
2023-01-19T11:45:14.060Z,80.08
2023-01-19T11:47:52.398Z,79.65
2023-01-19T11:50:30.314Z,81.18
2023-01-19T11:53:12.615Z,81.29
2023-01-19T11:55:53.773Z,81.81
2023-01-19T11:58:28.003Z,82.08
2023-01-19T12:01:06.485Z,79.77
2023-01-19T12:03:45.343Z,79.04
2023-01-19T12:06:22.719Z,77.29
2023-01-19T12:09:00.082Z,78.29
2023-01-19T12:11:37.390Z,78.53
2023-01-19T12:14:20.054Z,79.00
2023-01-19T12:17:00.432Z,79.36
2023-01-19T12:19:44.139Z,78.78
2023-01-19T12:22:19.000Z,77.89
2023-01-19T12:24:59.279Z,79.37
2023-01-19T12:27:41.239Z,74.10
2023-01-19T12:30:22.401Z,75.84
2023-01-19T12:33:34.767Z,76.51
2023-01-19T12:36:14.192Z,77.98
2023-01-19T12:38:52.449Z,78.40
2023-01-19T12:41:30.077Z,79.42
2023-01-19T12:44:30.716Z,80.61
2023-01-19T12:47:22.395Z,79.70
2023-01-19T12:50:00.829Z,79.38
2023-01-19T12:52:41.579Z,79.52
2023-01-19T12:55:24.169Z,80.13
2023-01-19T12:58:03.165Z,80.61
2023-01-19T13:00:39.975Z,80.17
2023-01-19T13:03:44.926Z,80.50
2023-01-19T13:06:18.109Z,79.94
2023-01-19T13:09:02.012Z,77.62
2023-01-19T13:11:35.127Z,78.00
2023-01-19T13:14:35.853Z,78.17
2023-01-19T13:17:28.389Z,78.74
2023-01-19T13:20:27.672Z,78.83
2023-01-19T13:23:26.069Z,78.91
2023-01-19T13:26:07.127Z,79.40
2023-01-19T13:28:44.659Z,80.00
2023-01-19T13:31:18.644Z,80.23
2023-01-19T13:33:54.862Z,81.09
2023-01-19T13:36:32.540Z,82.08
2023-01-19T13:39:08.618Z,81.03
2023-01-19T13:41:45.016Z,79.97
2023-01-19T13:44:26.096Z,80.87
2023-01-19T13:47:00.132Z,81.06
2023-01-19T13:49:37.254Z,79.54
2023-01-19T13:52:21.430Z,81.05
2023-01-19T13:54:56.601Z,80.87
2023-01-19T13:57:32.855Z,80.97
2023-01-19T14:00:17.337Z,80.23
2023-01-19T14:02:58.754Z,81.97
2023-01-19T14:05:34.679Z,81.89
2023-01-19T14:08:15.268Z,82.15
2023-01-19T14:11:02.091Z,83.48
2023-01-19T14:13:40.186Z,83.66
2023-01-19T14:16:18.007Z,84.31
2023-01-19T14:19:02.260Z,85.02
2023-01-19T14:21:40.485Z,83.83
2023-01-19T14:24:19.249Z,84.51
2023-01-19T14:26:54.771Z,85.09
2023-01-19T14:29:32.570Z,85.35
2023-01-19T14:32:16.366Z,85.31
2023-01-19T14:34:51.901Z,84.19
2023-01-19T14:37:28.683Z,84.46
2023-01-19T14:40:05.623Z,85.51
2023-01-19T14:42:45.608Z,86.50
2023-01-19T14:45:22.557Z,87.04
2023-01-19T14:47:58.232Z,86.79
2023-01-19T14:50:35.206Z,87.08
2023-01-19T14:53:16.379Z,88.86
2023-01-19T14:55:52.445Z,89.25
2023-01-19T14:58:28.598Z,87.93
2023-01-19T15:01:03.716Z,88.18
2023-01-19T15:03:45.681Z,88.45
2023-01-19T15:06:21.496Z,88.59
2023-01-19T15:08:55.514Z,88.70
2023-01-19T15:11:32.588Z,88.03
2023-01-19T15:14:05.704Z,87.67
2023-01-19T15:16:40.505Z,88.44
2023-01-19T15:19:14.775Z,87.97
2023-01-19T15:21:47.848Z,85.91
2023-01-19T15:24:20.870Z,85.95
2023-01-19T15:26:54.067Z,87.28
2023-01-19T15:29:28.676Z,86.57
2023-01-19T15:32:03.940Z,87.99
2023-01-19T15:34:37.036Z,89.24
2023-01-19T15:37:10.277Z,89.73
2023-01-19T15:39:43.373Z,88.74
2023-01-19T15:42:16.636Z,88.91
2023-01-19T15:44:49.687Z,88.74
2023-01-19T15:47:24.054Z,88.43
2023-01-19T15:49:57.147Z,89.76
2023-01-19T15:52:30.215Z,90.09
2023-01-19T15:55:03.255Z,90.40
2023-01-19T15:57:36.387Z,91.19
2023-01-19T16:00:11.701Z,91.35
2023-01-19T16:02:46.202Z,91.76
2023-01-19T16:05:19.414Z,92.27
2023-01-19T16:07:52.991Z,92.19
2023-01-19T16:10:26.826Z,92.95
2023-01-19T16:12:59.866Z,93.03
2023-01-19T16:15:35.720Z,93.38
2023-01-19T16:18:10.171Z,93.86
2023-01-19T16:20:43.192Z,93.99
2023-01-19T16:23:16.282Z,93.62
2023-01-19T16:25:58.504Z,94.08
2023-01-19T16:28:32.116Z,94.48
2023-01-19T16:31:05.979Z,95.07
2023-01-19T16:33:40.400Z,95.38
2023-01-19T16:36:22.750Z,94.99
2023-01-19T16:38:59.609Z,95.32
2023-01-19T16:41:33.600Z,96.10
2023-01-19T16:44:08.034Z,96.63
2023-01-19T16:46:44.410Z,96.61
2023-01-19T16:49:21.171Z,97.11
2023-01-19T16:51:55.339Z,97.04
2023-01-19T16:54:29.888Z,97.39
2023-01-19T16:57:02.991Z,97.25
2023-01-19T16:59:36.164Z,97.04
2023-01-19T17:02:11.117Z,97.43
2023-01-19T17:04:45.575Z,97.79
2023-01-19T17:07:19.366Z,97.91
2023-01-19T17:09:52.495Z,97.71
2023-01-19T17:12:25.678Z,97.55
2023-01-19T17:14:58.718Z,97.96
2023-01-19T17:17:31.834Z,98.46
2023-01-19T17:20:07.844Z,97.86
2023-01-19T17:22:40.890Z,98.65
2023-01-19T17:25:13.984Z,98.76
2023-01-19T17:27:47.035Z,98.35
2023-01-19T17:30:20.420Z,98.45
2023-01-19T17:32:53.850Z,99.02
2023-01-19T17:35:28.289Z,98.88
2023-01-19T17:38:01.323Z,98.83
2023-01-19T17:40:34.339Z,98.99
2023-01-19T17:43:07.835Z,99.09
2023-01-19T17:45:40.862Z,99.07
2023-01-19T17:48:14.140Z,100.00
2023-01-19T17:50:48.570Z,99.98
2023-01-19T17:53:21.645Z,99.97
2023-01-19T17:55:54.748Z,99.61
2023-01-19T17:58:27.803Z,99.49
2023-01-19T18:01:09.027Z,99.14
2023-01-19T18:03:42.734Z,99.12
2023-01-19T18:06:17.857Z,98.43
2023-01-19T18:08:52.421Z,99.31
2023-01-19T18:11:25.590Z,98.68
2023-01-19T18:14:00.175Z,98.17
2023-01-19T18:16:33.511Z,98.49
2023-01-19T18:19:06.592Z,97.80
2023-01-19T18:21:41.059Z,97.61
2023-01-19T18:24:14.111Z,98.13
2023-01-19T18:26:47.138Z,99.28
2023-01-19T18:29:20.518Z,98.89
2023-01-19T18:31:53.584Z,99.29
2023-01-19T18:34:26.637Z,99.72
2023-01-19T18:37:01.228Z,99.81
2023-01-19T18:39:34.514Z,99.81
2023-01-19T18:42:07.552Z,99.59
2023-01-19T18:44:40.603Z,99.40
2023-01-19T18:47:13.660Z,99.69
2023-01-19T18:49:46.724Z,99.17
2023-01-19T18:52:21.579Z,99.77
2023-01-19T18:54:54.678Z,100.00
2023-01-19T18:57:27.750Z,100.00
2023-01-19T19:00:00.932Z,100.00
2023-01-19T19:02:34.518Z,99.65
2023-01-19T19:05:09.158Z,100.00
2023-01-19T19:07:43.872Z,100.00
2023-01-19T19:10:17.563Z,99.99
2023-01-19T19:12:50.834Z,99.84
2023-01-19T19:15:24.277Z,99.79
2023-01-19T19:17:57.313Z,100.00
2023-01-19T19:20:30.631Z,100.00
2023-01-19T19:23:05.242Z,99.68
2023-01-19T19:25:38.833Z,99.56
2023-01-19T19:28:11.898Z,99.27
2023-01-19T19:30:46.522Z,99.85
2023-01-19T19:33:19.609Z,100.00
2023-01-19T19:35:58.000Z,100.00
2023-01-19T19:38:32.516Z,99.97
2023-01-19T19:41:10.208Z,100.00
2023-01-19T19:43:43.249Z,100.00
2023-01-19T19:46:20.030Z,100.00
2023-01-19T19:48:54.485Z,100.00
2023-01-19T19:51:28.937Z,100.00
2023-01-19T19:54:03.331Z,100.00
2023-01-19T19:56:36.439Z,100.00
2023-01-19T19:59:10.210Z,100.00
2023-01-19T20:01:44.937Z,100.00
2023-01-19T20:04:20.177Z,100.00
2023-01-19T20:06:53.581Z,100.00
2023-01-19T20:09:27.951Z,100.00
2023-01-19T20:12:00.975Z,100.00
2023-01-19T20:14:35.255Z,100.00
2023-01-19T20:17:08.244Z,100.00
2023-01-19T20:19:41.262Z,100.00
2023-01-19T20:22:14.335Z,100.00
2023-01-19T20:24:51.301Z,100.00
2023-01-19T20:27:24.327Z,100.00
2023-01-19T20:29:58.402Z,100.00
2023-01-19T20:32:31.504Z,100.00
2023-01-19T20:35:06.275Z,100.00
2023-01-19T20:37:39.430Z,100.00
2023-01-19T20:40:13.892Z,100.00
2023-01-19T20:42:46.915Z,100.00
2023-01-19T20:45:20.683Z,100.00
2023-01-19T20:47:54.318Z,100.00
2023-01-19T20:50:27.353Z,100.00
2023-01-19T20:53:00.367Z,100.00
2023-01-19T20:55:34.725Z,100.00
2023-01-19T20:58:07.885Z,100.00
2023-01-19T21:00:41.022Z,100.00
2023-01-19T21:03:14.465Z,100.00
2023-01-19T21:05:48.621Z,100.00
2023-01-19T21:08:21.585Z,100.00
2023-01-19T21:10:58.268Z,100.00
2023-01-19T21:13:31.708Z,100.00
2023-01-19T21:16:06.377Z,100.00
2023-01-19T21:18:39.411Z,100.00
2023-01-19T21:21:28.477Z,100.00
2023-01-19T21:24:03.889Z,100.00
2023-01-19T21:26:38.876Z,100.00
2023-01-19T21:29:13.968Z,100.00
2023-01-19T21:31:47.013Z,100.00
2023-01-19T21:34:20.013Z,100.00
2023-01-19T21:36:53.362Z,100.00
2023-01-19T21:39:26.361Z,100.00
2023-01-19T21:42:00.720Z,100.00
2023-01-19T21:44:33.909Z,100.00
2023-01-19T21:47:08.989Z,100.00
2023-01-19T21:49:42.004Z,100.00
2023-01-19T21:52:14.995Z,100.00
2023-01-19T21:54:47.962Z,100.00
2023-01-19T21:57:22.343Z,100.00
2023-01-19T21:59:55.468Z,100.00
2023-01-19T22:02:38.301Z,100.00
2023-01-19T22:05:12.621Z,100.00
2023-01-19T22:07:45.796Z,100.00
2023-01-19T22:10:19.247Z,100.00
2023-01-19T22:12:53.646Z,100.00
2023-01-19T22:15:26.656Z,100.00
2023-01-19T22:17:59.712Z,100.00
2023-01-19T22:20:32.733Z,100.00
2023-01-19T22:23:05.867Z,100.00
2023-01-19T22:25:38.877Z,100.00
2023-01-19T22:28:13.229Z,100.00
2023-01-19T22:30:46.359Z,100.00
2023-01-19T22:33:19.419Z,100.00
2023-01-19T22:35:52.453Z,100.00
2023-01-19T22:38:25.438Z,100.00
2023-01-19T22:40:58.413Z,100.00
2023-01-19T22:43:32.787Z,100.00
2023-01-19T22:46:08.621Z,100.00
2023-01-19T22:48:41.741Z,100.00
2023-01-19T22:51:15.688Z,100.00
2023-01-19T22:53:48.852Z,100.00
2023-01-19T22:56:24.427Z,100.00
2023-01-19T22:58:59.717Z,100.00
2023-01-19T23:01:35.206Z,100.00
2023-01-19T23:04:11.703Z,100.00
2023-01-19T23:06:46.847Z,100.00
2023-01-19T23:09:20.308Z,100.00
2023-01-19T23:11:53.315Z,100.00
2023-01-19T23:14:29.387Z,100.00
2023-01-19T23:17:02.459Z,100.00
2023-01-19T23:19:35.664Z,100.00
2023-01-19T23:22:08.677Z,100.00
2023-01-19T23:24:44.418Z,100.00
2023-01-19T23:27:17.422Z,100.00
2023-01-19T23:29:51.731Z,100.00
2023-01-19T23:32:24.733Z,100.00
2023-01-19T23:34:57.752Z,100.00
2023-01-19T23:37:30.769Z,100.00
2023-01-19T23:40:03.874Z,100.00
2023-01-19T23:42:36.889Z,100.00
2023-01-19T23:45:12.376Z,100.00
2023-01-19T23:47:46.367Z,100.00
2023-01-19T23:50:19.798Z,100.00
2023-01-19T23:52:52.796Z,100.00
2023-01-19T23:55:25.886Z,100.00
2023-01-19T23:57:58.961Z,100.00
